createdAt,value
2023-03-15T00:03:10.743Z,96742.75
2023-03-15T00:07:12.129Z,96758.91
2023-03-15T00:11:13.806Z,96755.38
2023-03-15T00:15:15.215Z,96758.69
2023-03-15T00:19:17.976Z,96760.84
2023-03-15T00:23:19.324Z,96752.41
2023-03-15T00:27:20.710Z,96768.56
2023-03-15T00:31:23.533Z,96783.63
2023-03-15T00:35:26.552Z,96798.91
2023-03-15T00:39:27.899Z,96813.13
2023-03-15T00:43:29.266Z,96819.44
2023-03-15T00:47:30.823Z,96813.97
2023-03-15T00:51:33.634Z,96821.63
2023-03-15T00:55:35.334Z,96822.19
2023-03-15T00:59:36.762Z,96822.75
2023-03-15T01:03:38.482Z,96821.97
2023-03-15T01:07:41.444Z,96825.25
2023-03-15T01:11:42.847Z,96824.19
2023-03-15T01:15:45.467Z,96825.00
2023-03-15T01:19:46.842Z,96829.66
2023-03-15T01:23:49.640Z,96819.53
2023-03-15T01:27:51.026Z,96831.88
2023-03-15T01:31:52.411Z,96844.69
2023-03-15T01:35:58.194Z,96835.94
2023-03-15T01:40:01.096Z,96836.50
2023-03-15T01:44:02.534Z,96846.91
2023-03-15T01:48:04.232Z,96848.56
2023-03-15T01:52:06.909Z,96835.16
2023-03-15T01:56:10.093Z,96830.25
2023-03-15T02:00:13.130Z,96837.38
2023-03-15T02:04:16.824Z,96838.97
2023-03-15T02:08:19.058Z,96849.38
2023-03-15T02:12:21.855Z,96863.84
2023-03-15T02:16:24.776Z,96880.78
2023-03-15T02:20:31.005Z,96887.59
2023-03-15T02:24:38.969Z,96894.72
2023-03-15T02:28:42.355Z,96906.44
2023-03-15T02:32:43.919Z,96930.75
2023-03-15T02:36:45.334Z,96923.94
2023-03-15T02:40:46.723Z,96919.84
2023-03-15T02:44:50.698Z,96933.47
2023-03-15T02:48:52.696Z,96947.94
2023-03-15T02:52:54.128Z,96964.09
2023-03-15T02:56:55.520Z,96972.84
2023-03-15T03:00:58.281Z,96982.38
2023-03-15T03:04:59.655Z,96988.06
2023-03-15T03:09:01.027Z,97001.38
2023-03-15T03:13:02.418Z,97011.81
2023-03-15T03:17:05.230Z,97013.69
2023-03-15T03:21:07.303Z,97010.16
2023-03-15T03:25:09.288Z,97026.31
2023-03-15T03:29:10.633Z,97041.00
2023-03-15T03:33:13.366Z,97053.81
2023-03-15T03:37:14.902Z,97061.69
2023-03-15T03:41:16.283Z,97069.56
2023-03-15T03:45:17.793Z,97088.22
2023-03-15T03:49:20.540Z,97080.53
2023-03-15T03:53:21.942Z,97102.34
2023-03-15T03:57:23.350Z,97101.19
2023-03-15T04:01:24.738Z,97102.25
2023-03-15T04:05:27.586Z,97120.00
2023-03-15T04:09:28.996Z,97133.91
2023-03-15T04:13:30.655Z,97138.47
2023-03-15T04:17:32.005Z,97141.00
2023-03-15T04:21:34.732Z,97147.34
2023-03-15T04:25:36.071Z,97157.22
2023-03-15T04:29:37.415Z,97163.44
2023-03-15T04:33:38.757Z,97172.19
2023-03-15T04:37:41.498Z,97186.97
2023-03-15T04:41:42.997Z,97187.75
2023-03-15T04:45:44.336Z,97194.25
2023-03-15T04:49:45.664Z,97197.03
2023-03-15T04:53:48.361Z,97214.56
2023-03-15T04:57:49.745Z,97221.34
2023-03-15T05:01:51.150Z,97232.69
2023-03-15T05:05:52.561Z,97242.69
2023-03-15T05:09:55.261Z,97247.38
2023-03-15T05:13:56.612Z,97255.38
2023-03-15T05:17:57.940Z,97267.47
2023-03-15T05:21:59.328Z,97267.78
2023-03-15T05:26:02.081Z,97279.84
2023-03-15T05:30:04.396Z,97292.78
2023-03-15T05:34:06.120Z,97299.25
2023-03-15T05:38:07.523Z,97308.84
2023-03-15T05:42:10.246Z,97318.13
2023-03-15T05:46:11.646Z,97325.13
2023-03-15T05:50:13.071Z,97326.53
2023-03-15T05:54:14.416Z,97334.81
2023-03-15T05:58:17.101Z,97336.56
2023-03-15T06:02:18.476Z,97337.91
2023-03-15T06:06:20.313Z,97347.19
2023-03-15T06:10:22.046Z,97354.63
2023-03-15T06:14:24.848Z,97361.25
2023-03-15T06:18:26.192Z,97371.41
2023-03-15T06:22:27.826Z,97382.38
2023-03-15T06:26:29.208Z,97379.72
2023-03-15T06:30:31.983Z,97383.38
2023-03-15T06:34:33.379Z,97389.34
2023-03-15T06:38:34.726Z,97403.13
2023-03-15T06:42:36.199Z,97407.03
2023-03-15T06:46:38.931Z,97412.03
2023-03-15T06:50:46.932Z,97417.09
2023-03-15T06:54:48.878Z,97417.47
2023-03-15T06:58:50.202Z,97432.31
2023-03-15T07:02:53.007Z,97436.81
2023-03-15T07:06:54.652Z,97432.38
2023-03-15T07:10:55.994Z,97443.34
2023-03-15T07:14:57.349Z,97438.97
2023-03-15T07:19:00.666Z,97445.41
2023-03-15T07:23:02.055Z,97445.69
2023-03-15T07:27:03.570Z,97453.34
2023-03-15T07:31:05.910Z,97456.75
2023-03-15T07:35:09.850Z,97461.94
2023-03-15T07:39:12.478Z,97460.94
2023-03-15T07:43:13.852Z,97469.78
2023-03-15T07:47:15.219Z,97470.41
2023-03-15T07:51:17.931Z,97466.47
2023-03-15T07:55:19.372Z,97472.25
2023-03-15T07:59:20.737Z,97483.03
2023-03-15T08:03:22.215Z,97486.25
2023-03-15T08:07:24.990Z,97487.41
2023-03-15T08:11:26.359Z,97491.22
2023-03-15T08:15:27.708Z,97496.38
2023-03-15T08:19:29.034Z,97494.44
2023-03-15T08:23:31.760Z,97504.94
2023-03-15T08:27:33.104Z,97492.53
2023-03-15T08:31:34.738Z,97491.53
2023-03-15T08:35:36.142Z,97497.44
2023-03-15T08:39:38.971Z,97493.19
2023-03-15T08:43:40.362Z,97489.44
2023-03-15T08:47:42.172Z,97482.94
2023-03-15T08:51:43.679Z,97484.03
2023-03-15T08:55:47.523Z,97493.34
2023-03-15T08:59:48.856Z,97512.53
2023-03-15T09:03:50.189Z,97515.91
2023-03-15T09:07:51.780Z,97511.22
2023-03-15T09:11:54.492Z,97510.63
2023-03-15T09:15:56.545Z,97523.53
2023-03-15T09:19:57.886Z,97521.34
2023-03-15T09:23:59.315Z,97524.66
2023-03-15T09:28:02.139Z,97523.81
2023-03-15T09:32:03.609Z,97531.22
2023-03-15T09:36:05.171Z,97532.59
2023-03-15T09:40:07.418Z,97530.44
2023-03-15T09:44:14.806Z,97538.13
2023-03-15T09:48:19.763Z,97544.38
2023-03-15T09:52:33.340Z,97545.50
2023-03-15T09:56:36.422Z,97541.94
2023-03-15T10:00:41.344Z,97540.88
2023-03-15T10:04:43.470Z,97540.59
2023-03-15T10:08:45.633Z,97544.16
2023-03-15T10:12:51.107Z,97553.47
2023-03-15T10:16:53.814Z,97544.41
2023-03-15T10:20:59.585Z,97553.72
2023-03-15T10:25:04.431Z,97556.72
2023-03-15T10:29:11.896Z,97556.19
2023-03-15T10:33:16.411Z,97566.06
2023-03-15T10:37:17.837Z,97557.28
2023-03-15T10:41:29.369Z,97555.59
2023-03-15T10:45:30.737Z,97564.13
2023-03-15T10:49:37.151Z,97551.53
2023-03-15T10:53:47.703Z,97546.03
2023-03-15T10:57:52.713Z,97546.03
2023-03-15T11:02:06.936Z,97548.94
2023-03-15T11:06:20.530Z,97525.59
2023-03-15T11:10:22.508Z,97525.00
2023-03-15T11:14:23.949Z,97515.88
2023-03-15T11:18:27.119Z,97515.75
2023-03-15T11:22:29.896Z,97507.50
2023-03-15T11:26:33.578Z,97516.56
2023-03-15T11:30:35.861Z,97507.25
2023-03-15T11:34:38.532Z,97508.22
2023-03-15T11:38:42.431Z,97510.22
2023-03-15T11:42:48.087Z,97509.78
2023-03-15T11:46:50.402Z,97508.19
2023-03-15T11:50:52.650Z,97505.44
2023-03-15T11:54:57.351Z,97494.66
2023-03-15T11:59:06.746Z,97491.50
2023-03-15T12:03:24.104Z,97482.34
2023-03-15T12:07:36.764Z,97485.72
2023-03-15T12:11:41.006Z,97481.00
2023-03-15T12:15:46.570Z,97480.47
2023-03-15T12:19:47.980Z,97476.66
2023-03-15T12:23:56.953Z,97471.19
2023-03-15T12:27:59.868Z,97462.09
2023-03-15T12:32:07.242Z,97455.38
2023-03-15T12:36:09.669Z,97455.25
2023-03-15T12:40:35.123Z,97462.91
2023-03-15T12:44:39.005Z,97463.88
2023-03-15T12:49:00.403Z,97462.94
2023-03-15T12:53:02.545Z,97471.09
2023-03-15T12:57:04.356Z,97470.47
2023-03-15T13:01:08.034Z,97468.28
2023-03-15T13:05:23.953Z,97480.25
2023-03-15T13:09:40.192Z,97492.78
2023-03-15T13:13:50.126Z,97478.97
2023-03-15T13:17:56.685Z,97489.66
2023-03-15T13:22:05.492Z,97509.56
2023-03-15T13:26:14.875Z,97507.41
2023-03-15T13:30:36.668Z,97511.31
2023-03-15T13:34:39.868Z,97513.31
2023-03-15T13:38:42.335Z,97524.38
2023-03-15T13:42:43.741Z,97518.06
2023-03-15T13:46:46.232Z,97523.03
2023-03-15T13:50:50.091Z,97520.53
2023-03-15T13:54:53.349Z,97522.47
2023-03-15T13:58:56.765Z,97529.34
2023-03-15T14:03:00.480Z,97530.16
2023-03-15T14:07:07.729Z,97521.38
2023-03-15T14:11:11.031Z,97523.25
2023-03-15T14:15:14.890Z,97533.13
2023-03-15T14:19:18.760Z,97537.78
2023-03-15T14:23:24.335Z,97548.13
2023-03-15T14:27:26.593Z,97536.88
2023-03-15T14:31:32.496Z,97549.72
2023-03-15T14:35:41.500Z,97538.53
2023-03-15T14:39:44.253Z,97538.25
2023-03-15T14:43:45.629Z,97537.16
2023-03-15T14:47:57.074Z,97541.56
2023-03-15T14:52:00.196Z,97539.69
2023-03-15T14:56:03.068Z,97538.81
2023-03-15T15:00:05.025Z,97535.84
2023-03-15T15:04:06.773Z,97532.59
2023-03-15T15:08:10.432Z,97534.22
2023-03-15T15:12:13.508Z,97528.47
2023-03-15T15:16:14.859Z,97541.34
2023-03-15T15:20:16.487Z,97554.75
2023-03-15T15:24:19.919Z,97556.34
2023-03-15T15:28:34.214Z,97557.41
2023-03-15T15:32:37.048Z,97563.16
2023-03-15T15:36:39.582Z,97563.97
2023-03-15T15:40:41.168Z,97558.81
2023-03-15T15:44:43.870Z,97564.03
2023-03-15T15:48:45.254Z,97571.72
2023-03-15T15:52:48.394Z,97560.38
2023-03-15T15:56:51.845Z,97564.56
2023-03-15T16:00:54.593Z,97567.25
2023-03-15T16:04:56.003Z,97566.19
2023-03-15T16:08:57.686Z,97574.94
2023-03-15T16:12:59.066Z,97581.19
2023-03-15T16:17:01.830Z,97580.50
2023-03-15T16:21:03.278Z,97590.63
2023-03-15T16:25:06.475Z,97596.66
2023-03-15T16:29:13.542Z,97604.84
2023-03-15T16:33:17.150Z,97602.88
2023-03-15T16:37:21.657Z,97614.94
2023-03-15T16:41:23.060Z,97610.47
2023-03-15T16:45:24.991Z,97622.72
2023-03-15T16:49:27.717Z,97636.41
2023-03-15T16:53:29.099Z,97639.84
2023-03-15T16:57:30.549Z,97640.25
2023-03-15T17:01:32.313Z,97650.63
2023-03-15T17:05:35.047Z,97652.53
2023-03-15T17:09:36.778Z,97665.81
2023-03-15T17:13:39.867Z,97675.91
2023-03-15T17:17:41.201Z,97676.41
2023-03-15T17:21:43.962Z,97682.56
2023-03-15T17:25:45.350Z,97683.34
2023-03-15T17:29:46.769Z,97694.34
2023-03-15T17:33:48.151Z,97697.69
2023-03-15T17:37:50.899Z,97702.75
2023-03-15T17:41:52.265Z,97702.09
2023-03-15T17:45:54.074Z,97712.75
2023-03-15T17:49:55.427Z,97724.84
2023-03-15T17:53:58.545Z,97724.81
2023-03-15T17:57:59.920Z,97735.31
2023-03-15T18:02:01.290Z,97731.78
2023-03-15T18:06:02.645Z,97728.09
2023-03-15T18:10:06.140Z,97734.88
2023-03-15T18:14:10.149Z,97738.69
2023-03-15T18:18:11.824Z,97757.16
2023-03-15T18:22:15.720Z,97751.78
2023-03-15T18:26:19.139Z,97752.66
2023-03-15T18:30:21.649Z,97760.88
2023-03-15T18:34:22.988Z,97760.00
2023-03-15T18:38:24.369Z,97761.34
2023-03-15T18:42:27.117Z,97762.72
2023-03-15T18:46:28.562Z,97775.16
2023-03-15T18:50:30.218Z,97771.28
2023-03-15T18:54:31.576Z,97777.47
2023-03-15T18:58:34.312Z,97785.44
2023-03-15T19:02:35.687Z,97793.53
2023-03-15T19:06:37.170Z,97795.94
2023-03-15T19:10:38.558Z,97799.56
2023-03-15T19:14:41.261Z,97805.13
2023-03-15T19:18:42.721Z,97800.84
2023-03-15T19:22:44.197Z,97801.28
2023-03-15T19:26:45.544Z,97810.88
2023-03-15T19:30:48.625Z,97821.88
2023-03-15T19:34:50.068Z,97820.44
2023-03-15T19:38:51.412Z,97823.63
2023-03-15T19:42:52.851Z,97807.91
2023-03-15T19:46:55.595Z,97800.66
2023-03-15T19:50:56.999Z,97801.34
2023-03-15T19:54:58.705Z,97802.28
2023-03-15T19:59:00.104Z,97808.50
2023-03-15T20:03:02.857Z,97819.44
2023-03-15T20:07:04.274Z,97818.91
2023-03-15T20:11:06.326Z,97820.97
2023-03-15T20:15:08.594Z,97828.56
2023-03-15T20:19:11.324Z,97834.59
2023-03-15T20:23:12.737Z,97842.53
2023-03-15T20:27:14.100Z,97837.44
2023-03-15T20:31:16.474Z,97841.22
2023-03-15T20:35:19.302Z,97849.00
2023-03-15T20:39:20.683Z,97860.69
2023-03-15T20:43:22.528Z,97867.47
2023-03-15T20:47:23.936Z,97865.88
2023-03-15T20:51:26.694Z,97871.63
2023-03-15T20:55:28.023Z,97877.75
2023-03-15T20:59:29.476Z,97874.41
2023-03-15T21:03:30.911Z,97875.91
2023-03-15T21:07:33.647Z,97887.06
2023-03-15T21:11:34.991Z,97882.94
2023-03-15T21:15:36.461Z,97885.81
2023-03-15T21:19:37.877Z,97891.72
2023-03-15T21:23:40.605Z,97898.97
2023-03-15T21:27:41.953Z,97897.28
2023-03-15T21:31:43.330Z,97894.28
2023-03-15T21:35:44.907Z,97897.38
2023-03-15T21:39:47.696Z,97885.91
2023-03-15T21:43:49.161Z,97894.97
2023-03-15T21:47:50.520Z,97899.94
2023-03-15T21:51:51.847Z,97910.13
2023-03-15T21:55:56.528Z,97909.22
2023-03-15T21:59:57.861Z,97914.81
2023-03-15T22:03:59.208Z,97911.69
2023-03-15T22:08:00.656Z,97915.69
2023-03-15T22:12:03.521Z,97919.13
2023-03-15T22:16:05.283Z,97918.38
2023-03-15T22:20:07.656Z,97920.47
2023-03-15T22:24:09.170Z,97924.06
2023-03-15T22:28:11.891Z,97922.19
2023-03-15T22:32:13.288Z,97932.69
2023-03-15T22:36:14.694Z,97937.09
2023-03-15T22:40:16.117Z,97941.88
2023-03-15T22:44:18.849Z,97947.53
2023-03-15T22:48:20.206Z,97945.03
2023-03-15T22:52:21.543Z,97942.16
2023-03-15T22:56:22.896Z,97943.31
2023-03-15T23:00:25.876Z,97934.72
2023-03-15T23:04:27.459Z,97940.19
2023-03-15T23:08:28.834Z,97945.44
2023-03-15T23:12:35.879Z,97943.00
2023-03-15T23:16:39.153Z,97934.91
2023-03-15T23:20:40.729Z,97942.22
2023-03-15T23:24:42.082Z,97937.81
2023-03-15T23:28:43.461Z,97943.47
2023-03-15T23:32:47.634Z,97951.84
2023-03-15T23:36:49.248Z,97961.69
2023-03-15T23:40:54.555Z,97961.88
2023-03-15T23:44:55.885Z,97954.44
2023-03-15T23:48:58.590Z,97961.75
2023-03-15T23:52:59.934Z,97961.78
2023-03-15T23:57:01.277Z,97959.91
